sensor_id;sensor_type;location;lat;lon;timestamp;P1;P2;P0
73241;PMS5003;65659;49.234;-2.094;2023-06-22T00:02:17;6;6;
73241;PMS5003;65659;49.234;-2.094;2023-06-22T00:04:43;10;10;
73241;PMS5003;65659;49.234;-2.094;2023-06-22T00:07:08;7;6;
73241;PMS5003;65659;49.234;-2.094;2023-06-22T00:09:34;8;7;
73241;PMS5003;65659;49.234;-2.094;2023-06-22T00:12:00;7;7;
73241;PMS5003;65659;49.234;-2.094;2023-06-22T00:14:26;7;7;
73241;PMS5003;65659;49.234;-2.094;2023-06-22T00:16:51;6;6;
73241;PMS5003;65659;49.234;-2.094;2023-06-22T00:19:17;5;5;
73241;PMS5003;65659;49.234;-2.094;2023-06-22T00:21:43;7;7;
73241;PMS5003;65659;49.234;-2.094;2023-06-22T00:24:09;6;6;
73241;PMS5003;65659;49.234;-2.094;2023-06-22T00:26:34;8;8;
73241;PMS5003;65659;49.234;-2.094;2023-06-22T00:29:00;7;7;
73241;PMS5003;65659;49.234;-2.094;2023-06-22T00:31:25;7;6;
73241;PMS5003;65659;49.234;-2.094;2023-06-22T00:33:51;7;6;
73241;PMS5003;65659;49.234;-2.094;2023-06-22T00:36:17;7;7;
73241;PMS5003;65659;49.234;-2.094;2023-06-22T00:38:43;9;9;
73241;PMS5003;65659;49.234;-2.094;2023-06-22T00:41:08;6;6;
73241;PMS5003;65659;49.234;-2.094;2023-06-22T00:43:34;8;8;
73241;PMS5003;65659;49.234;-2.094;2023-06-22T00:46:00;8;8;
73241;PMS5003;65659;49.234;-2.094;2023-06-22T00:48:26;7;7;
73241;PMS5003;65659;49.234;-2.094;2023-06-22T00:50:51;8;8;
73241;PMS5003;65659;49.234;-2.094;2023-06-22T00:53:17;6;6;
73241;PMS5003;65659;49.234;-2.094;2023-06-22T00:55:44;7;7;
73241;PMS5003;65659;49.234;-2.094;2023-06-22T00:58:09;10;8;
73241;PMS5003;65659;49.234;-2.094;2023-06-22T01:00:34;7;7;
73241;PMS5003;65659;49.234;-2.094;2023-06-22T01:03:01;9;9;
73241;PMS5003;65659;49.234;-2.094;2023-06-22T01:05:26;7;7;
73241;PMS5003;65659;49.234;-2.094;2023-06-22T01:07:56;8;8;
73241;PMS5003;65659;49.234;-2.094;2023-06-22T01:10:20;8;8;
73241;PMS5003;65659;49.234;-2.094;2023-06-22T01:12:44;8;8;
73241;PMS5003;65659;49.234;-2.094;2023-06-22T01:15:10;9;9;
73241;PMS5003;65659;49.234;-2.094;2023-06-22T01:17:35;10;10;
73241;PMS5003;65659;49.234;-2.094;2023-06-22T01:20:00;6;6;
73241;PMS5003;65659;49.234;-2.094;2023-06-22T01:22:28;9;9;
73241;PMS5003;65659;49.234;-2.094;2023-06-22T01:24:57;8;7;
73241;PMS5003;65659;49.234;-2.094;2023-06-22T01:27:20;8;8;
73241;PMS5003;65659;49.234;-2.094;2023-06-22T01:29:43;9;8;
73241;PMS5003;65659;49.234;-2.094;2023-06-22T01:32:08;8;8;
73241;PMS5003;65659;49.234;-2.094;2023-06-22T01:34:34;6;6;
73241;PMS5003;65659;49.234;-2.094;2023-06-22T01:37:00;9;9;
73241;PMS5003;65659;49.234;-2.094;2023-06-22T01:39:26;10;10;
73241;PMS5003;65659;49.234;-2.094;2023-06-22T01:41:52;10;10;
73241;PMS5003;65659;49.234;-2.094;2023-06-22T01:44:17;10;10;
73241;PMS5003;65659;49.234;-2.094;2023-06-22T01:46:43;9;8;
73241;PMS5003;65659;49.234;-2.094;2023-06-22T01:49:08;8;8;
73241;PMS5003;65659;49.234;-2.094;2023-06-22T01:51:34;7;6;
73241;PMS5003;65659;49.234;-2.094;2023-06-22T01:54:00;8;8;
73241;PMS5003;65659;49.234;-2.094;2023-06-22T01:56:25;10;10;
73241;PMS5003;65659;49.234;-2.094;2023-06-22T01:58:52;10;10;
73241;PMS5003;65659;49.234;-2.094;2023-06-22T02:01:17;8;8;
73241;PMS5003;65659;49.234;-2.094;2023-06-22T02:03:43;10;9;
73241;PMS5003;65659;49.234;-2.094;2023-06-22T02:06:08;10;10;
73241;PMS5003;65659;49.234;-2.094;2023-06-22T02:08:37;8;8;
73241;PMS5003;65659;49.234;-2.094;2023-06-22T02:10:59;9;9;
73241;PMS5003;65659;49.234;-2.094;2023-06-22T02:13:24;10;10;
73241;PMS5003;65659;49.234;-2.094;2023-06-22T02:15:50;11;10;
73241;PMS5003;65659;49.234;-2.094;2023-06-22T02:18:15;12;12;
73241;PMS5003;65659;49.234;-2.094;2023-06-22T02:20:41;9;9;
73241;PMS5003;65659;49.234;-2.094;2023-06-22T02:23:07;11;11;
73241;PMS5003;65659;49.234;-2.094;2023-06-22T02:25:33;11;11;
73241;PMS5003;65659;49.234;-2.094;2023-06-22T02:27:58;8;7;
73241;PMS5003;65659;49.234;-2.094;2023-06-22T02:30:24;10;10;
73241;PMS5003;65659;49.234;-2.094;2023-06-22T02:32:49;9;9;
73241;PMS5003;65659;49.234;-2.094;2023-06-22T02:35:15;11;10;
73241;PMS5003;65659;49.234;-2.094;2023-06-22T02:37:41;11;11;
73241;PMS5003;65659;49.234;-2.094;2023-06-22T02:40:07;11;11;
73241;PMS5003;65659;49.234;-2.094;2023-06-22T02:42:32;14;14;
73241;PMS5003;65659;49.234;-2.094;2023-06-22T02:44:57;14;14;
73241;PMS5003;65659;49.234;-2.094;2023-06-22T02:47:23;12;12;
73241;PMS5003;65659;49.234;-2.094;2023-06-22T02:49:48;14;14;
73241;PMS5003;65659;49.234;-2.094;2023-06-22T02:52:14;15;14;
73241;PMS5003;65659;49.234;-2.094;2023-06-22T02:54:40;12;11;
73241;PMS5003;65659;49.234;-2.094;2023-06-22T02:57:05;12;11;
73241;PMS5003;65659;49.234;-2.094;2023-06-22T02:59:31;13;13;
73241;PMS5003;65659;49.234;-2.094;2023-06-22T03:01:57;14;14;
73241;PMS5003;65659;49.234;-2.094;2023-06-22T03:04:22;15;15;
73241;PMS5003;65659;49.234;-2.094;2023-06-22T03:06:48;15;15;
73241;PMS5003;65659;49.234;-2.094;2023-06-22T03:09:13;13;13;
73241;PMS5003;65659;49.234;-2.094;2023-06-22T03:11:39;14;13;
73241;PMS5003;65659;49.234;-2.094;2023-06-22T03:14:04;13;12;
73241;PMS5003;65659;49.234;-2.094;2023-06-22T03:16:30;14;14;
73241;PMS5003;65659;49.234;-2.094;2023-06-22T03:18:55;16;16;
73241;PMS5003;65659;49.234;-2.094;2023-06-22T03:21:21;17;16;
73241;PMS5003;65659;49.234;-2.094;2023-06-22T03:23:46;16;15;
73241;PMS5003;65659;49.234;-2.094;2023-06-22T03:26:11;14;14;
73241;PMS5003;65659;49.234;-2.094;2023-06-22T03:28:37;15;14;
73241;PMS5003;65659;49.234;-2.094;2023-06-22T03:31:03;16;15;
73241;PMS5003;65659;49.234;-2.094;2023-06-22T03:33:28;16;15;
73241;PMS5003;65659;49.234;-2.094;2023-06-22T03:35:53;17;16;
73241;PMS5003;65659;49.234;-2.094;2023-06-22T03:38:18;17;16;
73241;PMS5003;65659;49.234;-2.094;2023-06-22T03:40:44;19;19;
73241;PMS5003;65659;49.234;-2.094;2023-06-22T03:43:09;23;22;
73241;PMS5003;65659;49.234;-2.094;2023-06-22T03:45:35;19;18;
73241;PMS5003;65659;49.234;-2.094;2023-06-22T03:48:01;14;14;
73241;PMS5003;65659;49.234;-2.094;2023-06-22T03:50:27;18;17;
73241;PMS5003;65659;49.234;-2.094;2023-06-22T03:52:52;18;16;
73241;PMS5003;65659;49.234;-2.094;2023-06-22T03:55:19;18;18;
73241;PMS5003;65659;49.234;-2.094;2023-06-22T03:57:43;18;17;
73241;PMS5003;65659;49.234;-2.094;2023-06-22T04:00:09;14;14;
73241;PMS5003;65659;49.234;-2.094;2023-06-22T04:02:34;18;18;
73241;PMS5003;65659;49.234;-2.094;2023-06-22T04:04:59;15;15;
73241;PMS5003;65659;49.234;-2.094;2023-06-22T04:07:25;20;19;
73241;PMS5003;65659;49.234;-2.094;2023-06-22T04:09:50;18;17;
73241;PMS5003;65659;49.234;-2.094;2023-06-22T04:12:15;19;19;
73241;PMS5003;65659;49.234;-2.094;2023-06-22T04:14:41;17;16;
73241;PMS5003;65659;49.234;-2.094;2023-06-22T04:17:06;19;19;
73241;PMS5003;65659;49.234;-2.094;2023-06-22T04:19:31;25;24;
73241;PMS5003;65659;49.234;-2.094;2023-06-22T04:21:57;17;17;
73241;PMS5003;65659;49.234;-2.094;2023-06-22T04:24:23;16;16;
73241;PMS5003;65659;49.234;-2.094;2023-06-22T04:26:48;20;19;
73241;PMS5003;65659;49.234;-2.094;2023-06-22T04:29:13;25;24;
73241;PMS5003;65659;49.234;-2.094;2023-06-22T04:31:39;13;13;
73241;PMS5003;65659;49.234;-2.094;2023-06-22T04:34:04;14;13;
73241;PMS5003;65659;49.234;-2.094;2023-06-22T04:36:29;14;14;
73241;PMS5003;65659;49.234;-2.094;2023-06-22T04:38:55;16;16;
73241;PMS5003;65659;49.234;-2.094;2023-06-22T04:41:21;20;18;
73241;PMS5003;65659;49.234;-2.094;2023-06-22T04:43:47;15;15;
73241;PMS5003;65659;49.234;-2.094;2023-06-22T04:46:12;20;19;
73241;PMS5003;65659;49.234;-2.094;2023-06-22T04:48:38;24;23;
73241;PMS5003;65659;49.234;-2.094;2023-06-22T04:51:04;20;20;
73241;PMS5003;65659;49.234;-2.094;2023-06-22T04:53:29;23;23;
73241;PMS5003;65659;49.234;-2.094;2023-06-22T04:55:55;18;18;
73241;PMS5003;65659;49.234;-2.094;2023-06-22T04:58:21;17;16;
73241;PMS5003;65659;49.234;-2.094;2023-06-22T05:00:47;15;15;
73241;PMS5003;65659;49.234;-2.094;2023-06-22T05:03:12;16;14;
73241;PMS5003;65659;49.234;-2.094;2023-06-22T05:05:37;15;15;
73241;PMS5003;65659;49.234;-2.094;2023-06-22T05:08:03;15;15;
73241;PMS5003;65659;49.234;-2.094;2023-06-22T05:10:28;18;17;
73241;PMS5003;65659;49.234;-2.094;2023-06-22T05:12:54;17;17;
73241;PMS5003;65659;49.234;-2.094;2023-06-22T05:15:19;17;16;
73241;PMS5003;65659;49.234;-2.094;2023-06-22T05:17:44;17;16;
73241;PMS5003;65659;49.234;-2.094;2023-06-22T05:20:10;14;14;
73241;PMS5003;65659;49.234;-2.094;2023-06-22T05:22:36;18;17;
73241;PMS5003;65659;49.234;-2.094;2023-06-22T05:25:01;21;20;
73241;PMS5003;65659;49.234;-2.094;2023-06-22T05:27:26;17;16;
73241;PMS5003;65659;49.234;-2.094;2023-06-22T05:29:51;16;15;
73241;PMS5003;65659;49.234;-2.094;2023-06-22T05:32:17;20;19;
73241;PMS5003;65659;49.234;-2.094;2023-06-22T05:34:42;17;17;
73241;PMS5003;65659;49.234;-2.094;2023-06-22T05:37:08;17;17;
73241;PMS5003;65659;49.234;-2.094;2023-06-22T05:39:34;15;15;
73241;PMS5003;65659;49.234;-2.094;2023-06-22T05:41:59;16;15;
73241;PMS5003;65659;49.234;-2.094;2023-06-22T05:44:25;19;17;
73241;PMS5003;65659;49.234;-2.094;2023-06-22T05:46:50;17;17;
73241;PMS5003;65659;49.234;-2.094;2023-06-22T05:49:16;18;17;
73241;PMS5003;65659;49.234;-2.094;2023-06-22T05:51:42;21;20;
73241;PMS5003;65659;49.234;-2.094;2023-06-22T05:54:07;17;17;
73241;PMS5003;65659;49.234;-2.094;2023-06-22T05:56:32;17;17;
73241;PMS5003;65659;49.234;-2.094;2023-06-22T05:58:58;24;24;
73241;PMS5003;65659;49.234;-2.094;2023-06-22T06:01:23;16;16;
73241;PMS5003;65659;49.234;-2.094;2023-06-22T06:03:48;19;18;
73241;PMS5003;65659;49.234;-2.094;2023-06-22T06:06:13;15;15;
73241;PMS5003;65659;49.234;-2.094;2023-06-22T06:08:39;23;21;
73241;PMS5003;65659;49.234;-2.094;2023-06-22T06:11:05;19;19;
73241;PMS5003;65659;49.234;-2.094;2023-06-22T06:13:30;24;23;
73241;PMS5003;65659;49.234;-2.094;2023-06-22T06:15:55;23;23;
73241;PMS5003;65659;49.234;-2.094;2023-06-22T06:18:20;22;22;
73241;PMS5003;65659;49.234;-2.094;2023-06-22T06:20:46;20;20;
73241;PMS5003;65659;49.234;-2.094;2023-06-22T06:23:11;16;16;
73241;PMS5003;65659;49.234;-2.094;2023-06-22T06:25:37;30;29;
73241;PMS5003;65659;49.234;-2.094;2023-06-22T06:28:02;22;21;
73241;PMS5003;65659;49.234;-2.094;2023-06-22T06:30:28;28;28;
73241;PMS5003;65659;49.234;-2.094;2023-06-22T06:32:53;21;21;
73241;PMS5003;65659;49.234;-2.094;2023-06-22T06:35:19;23;23;
73241;PMS5003;65659;49.234;-2.094;2023-06-22T06:37:46;24;24;
73241;PMS5003;65659;49.234;-2.094;2023-06-22T06:40:10;35;33;
73241;PMS5003;65659;49.234;-2.094;2023-06-22T06:42:34;24;23;
73241;PMS5003;65659;49.234;-2.094;2023-06-22T06:45:00;17;16;
73241;PMS5003;65659;49.234;-2.094;2023-06-22T06:47:26;14;13;
73241;PMS5003;65659;49.234;-2.094;2023-06-22T06:49:52;17;17;
73241;PMS5003;65659;49.234;-2.094;2023-06-22T06:52:18;13;13;
73241;PMS5003;65659;49.234;-2.094;2023-06-22T06:54:43;12;12;
73241;PMS5003;65659;49.234;-2.094;2023-06-22T06:57:09;14;14;
73241;PMS5003;65659;49.234;-2.094;2023-06-22T06:59:34;10;10;
73241;PMS5003;65659;49.234;-2.094;2023-06-22T07:02:00;12;11;
73241;PMS5003;65659;49.234;-2.094;2023-06-22T07:04:26;12;11;
73241;PMS5003;65659;49.234;-2.094;2023-06-22T07:06:51;11;11;
73241;PMS5003;65659;49.234;-2.094;2023-06-22T07:09:17;12;12;
73241;PMS5003;65659;49.234;-2.094;2023-06-22T07:11:43;9;9;
73241;PMS5003;65659;49.234;-2.094;2023-06-22T07:14:08;12;12;
73241;PMS5003;65659;49.234;-2.094;2023-06-22T07:16:34;10;10;
73241;PMS5003;65659;49.234;-2.094;2023-06-22T07:19:00;10;10;
73241;PMS5003;65659;49.234;-2.094;2023-06-22T07:21:25;11;11;
73241;PMS5003;65659;49.234;-2.094;2023-06-22T07:23:51;13;12;
73241;PMS5003;65659;49.234;-2.094;2023-06-22T07:26:17;13;12;
73241;PMS5003;65659;49.234;-2.094;2023-06-22T07:28:42;18;18;
73241;PMS5003;65659;49.234;-2.094;2023-06-22T07:31:08;24;21;
73241;PMS5003;65659;49.234;-2.094;2023-06-22T07:33:33;16;16;
73241;PMS5003;65659;49.234;-2.094;2023-06-22T07:35:59;27;27;
73241;PMS5003;65659;49.234;-2.094;2023-06-22T07:38:26;15;15;
73241;PMS5003;65659;49.234;-2.094;2023-06-22T07:40:50;15;15;
73241;PMS5003;65659;49.234;-2.094;2023-06-22T07:43:15;11;11;
73241;PMS5003;65659;49.234;-2.094;2023-06-22T07:45:43;12;12;
73241;PMS5003;65659;49.234;-2.094;2023-06-22T07:48:07;12;12;
73241;PMS5003;65659;49.234;-2.094;2023-06-22T07:50:33;13;13;
73241;PMS5003;65659;49.234;-2.094;2023-06-22T07:52:58;8;8;
73241;PMS5003;65659;49.234;-2.094;2023-06-22T07:55:24;13;13;
73241;PMS5003;65659;49.234;-2.094;2023-06-22T07:57:49;8;8;
73241;PMS5003;65659;49.234;-2.094;2023-06-22T08:00:15;13;12;
73241;PMS5003;65659;49.234;-2.094;2023-06-22T08:02:41;13;13;
73241;PMS5003;65659;49.234;-2.094;2023-06-22T08:05:06;10;9;
73241;PMS5003;65659;49.234;-2.094;2023-06-22T08:07:31;8;8;
73241;PMS5003;65659;49.234;-2.094;2023-06-22T08:09:57;9;8;
73241;PMS5003;65659;49.234;-2.094;2023-06-22T08:12:23;8;7;
73241;PMS5003;65659;49.234;-2.094;2023-06-22T08:14:49;9;8;
73241;PMS5003;65659;49.234;-2.094;2023-06-22T08:17:15;8;8;
73241;PMS5003;65659;49.234;-2.094;2023-06-22T08:19:40;9;9;
73241;PMS5003;65659;49.234;-2.094;2023-06-22T08:22:07;5;5;
73241;PMS5003;65659;49.234;-2.094;2023-06-22T08:24:38;7;7;
73241;PMS5003;65659;49.234;-2.094;2023-06-22T08:26:58;9;7;
73241;PMS5003;65659;49.234;-2.094;2023-06-22T08:29:24;10;9;
73241;PMS5003;65659;49.234;-2.094;2023-06-22T08:31:50;8;8;
73241;PMS5003;65659;49.234;-2.094;2023-06-22T08:34:14;8;8;
73241;PMS5003;65659;49.234;-2.094;2023-06-22T08:36:40;7;7;
73241;PMS5003;65659;49.234;-2.094;2023-06-22T08:39:06;7;7;
73241;PMS5003;65659;49.234;-2.094;2023-06-22T08:41:31;9;8;
73241;PMS5003;65659;49.234;-2.094;2023-06-22T08:43:57;7;7;
73241;PMS5003;65659;49.234;-2.094;2023-06-22T08:46:24;5;5;
73241;PMS5003;65659;49.234;-2.094;2023-06-22T08:48:50;8;8;
73241;PMS5003;65659;49.234;-2.094;2023-06-22T08:51:15;7;7;
73241;PMS5003;65659;49.234;-2.094;2023-06-22T08:53:41;6;6;
73241;PMS5003;65659;49.234;-2.094;2023-06-22T08:56:06;6;6;
73241;PMS5003;65659;49.234;-2.094;2023-06-22T08:58:31;6;6;
73241;PMS5003;65659;49.234;-2.094;2023-06-22T09:00:57;7;7;
73241;PMS5003;65659;49.234;-2.094;2023-06-22T09:03:23;10;9;
73241;PMS5003;65659;49.234;-2.094;2023-06-22T09:05:48;7;7;
73241;PMS5003;65659;49.234;-2.094;2023-06-22T09:08:14;7;6;
73241;PMS5003;65659;49.234;-2.094;2023-06-22T09:10:40;7;6;
73241;PMS5003;65659;49.234;-2.094;2023-06-22T09:13:06;5;5;
73241;PMS5003;65659;49.234;-2.094;2023-06-22T09:15:31;6;6;
73241;PMS5003;65659;49.234;-2.094;2023-06-22T09:17:57;5;5;
73241;PMS5003;65659;49.234;-2.094;2023-06-22T09:20:23;6;6;
73241;PMS5003;65659;49.234;-2.094;2023-06-22T09:22:48;15;15;
73241;PMS5003;65659;49.234;-2.094;2023-06-22T09:25:14;6;6;
73241;PMS5003;65659;49.234;-2.094;2023-06-22T09:27:41;6;6;
73241;PMS5003;65659;49.234;-2.094;2023-06-22T09:30:07;6;5;
73241;PMS5003;65659;49.234;-2.094;2023-06-22T09:32:32;11;11;
73241;PMS5003;65659;49.234;-2.094;2023-06-22T09:34:57;7;7;
73241;PMS5003;65659;49.234;-2.094;2023-06-22T09:37:22;6;6;
73241;PMS5003;65659;49.234;-2.094;2023-06-22T09:39:48;7;6;
73241;PMS5003;65659;49.234;-2.094;2023-06-22T09:42:13;5;5;
73241;PMS5003;65659;49.234;-2.094;2023-06-22T09:44:40;8;8;
73241;PMS5003;65659;49.234;-2.094;2023-06-22T09:47:08;3;3;
73241;PMS5003;65659;49.234;-2.094;2023-06-22T09:49:33;5;5;
73241;PMS5003;65659;49.234;-2.094;2023-06-22T09:51:57;6;6;
73241;PMS5003;65659;49.234;-2.094;2023-06-22T09:54:22;8;8;
73241;PMS5003;65659;49.234;-2.094;2023-06-22T09:56:47;6;6;
73241;PMS5003;65659;49.234;-2.094;2023-06-22T09:59:13;7;7;
73241;PMS5003;65659;49.234;-2.094;2023-06-22T10:01:39;6;6;
73241;PMS5003;65659;49.234;-2.094;2023-06-22T10:04:04;5;5;
73241;PMS5003;65659;49.234;-2.094;2023-06-22T10:06:30;7;6;
73241;PMS5003;65659;49.234;-2.094;2023-06-22T10:08:56;8;8;
73241;PMS5003;65659;49.234;-2.094;2023-06-22T10:11:21;5;5;
73241;PMS5003;65659;49.234;-2.094;2023-06-22T10:13:47;7;7;
73241;PMS5003;65659;49.234;-2.094;2023-06-22T10:16:12;9;9;
73241;PMS5003;65659;49.234;-2.094;2023-06-22T10:18:38;8;7;
73241;PMS5003;65659;49.234;-2.094;2023-06-22T10:21:04;8;7;
73241;PMS5003;65659;49.234;-2.094;2023-06-22T10:23:30;7;7;
73241;PMS5003;65659;49.234;-2.094;2023-06-22T10:25:56;6;6;
73241;PMS5003;65659;49.234;-2.094;2023-06-22T10:28:21;6;5;
73241;PMS5003;65659;49.234;-2.094;2023-06-22T10:30:47;9;9;
73241;PMS5003;65659;49.234;-2.094;2023-06-22T10:33:12;11;10;
73241;PMS5003;65659;49.234;-2.094;2023-06-22T10:42:55;10;10;
73241;PMS5003;65659;49.234;-2.094;2023-06-22T10:45:25;9;9;
73241;PMS5003;65659;49.234;-2.094;2023-06-22T10:47:47;8;8;
73241;PMS5003;65659;49.234;-2.094;2023-06-22T10:50:11;6;6;
73241;PMS5003;65659;49.234;-2.094;2023-06-22T10:52:37;8;8;
73241;PMS5003;65659;49.234;-2.094;2023-06-22T10:55:02;9;9;
73241;PMS5003;65659;49.234;-2.094;2023-06-22T10:57:29;14;13;
73241;PMS5003;65659;49.234;-2.094;2023-06-22T10:59:59;7;7;
73241;PMS5003;65659;49.234;-2.094;2023-06-22T11:02:24;9;9;
73241;PMS5003;65659;49.234;-2.094;2023-06-22T11:04:49;9;9;
73241;PMS5003;65659;49.234;-2.094;2023-06-22T11:07:13;7;7;
73241;PMS5003;65659;49.234;-2.094;2023-06-22T11:09:36;12;11;
73241;PMS5003;65659;49.234;-2.094;2023-06-22T11:12:05;9;9;
73241;PMS5003;65659;49.234;-2.094;2023-06-22T11:14:31;10;10;
73241;PMS5003;65659;49.234;-2.094;2023-06-22T11:16:54;12;12;
73241;PMS5003;65659;49.234;-2.094;2023-06-22T11:19:20;9;8;
73241;PMS5003;65659;49.234;-2.094;2023-06-22T11:21:45;15;15;
73241;PMS5003;65659;49.234;-2.094;2023-06-22T11:24:10;9;9;
73241;PMS5003;65659;49.234;-2.094;2023-06-22T11:26:37;10;10;
73241;PMS5003;65659;49.234;-2.094;2023-06-22T11:29:04;15;15;
73241;PMS5003;65659;49.234;-2.094;2023-06-22T11:31:27;10;10;
73241;PMS5003;65659;49.234;-2.094;2023-06-22T11:33:52;14;14;
73241;PMS5003;65659;49.234;-2.094;2023-06-22T11:36:20;9;9;
73241;PMS5003;65659;49.234;-2.094;2023-06-22T11:38:44;9;9;
73241;PMS5003;65659;49.234;-2.094;2023-06-22T11:41:09;12;12;
73241;PMS5003;65659;49.234;-2.094;2023-06-22T11:43:34;15;15;
73241;PMS5003;65659;49.234;-2.094;2023-06-22T11:46:00;9;9;
73241;PMS5003;65659;49.234;-2.094;2023-06-22T11:48:24;11;11;
73241;PMS5003;65659;49.234;-2.094;2023-06-22T11:50:51;10;10;
73241;PMS5003;65659;49.234;-2.094;2023-06-22T11:53:17;11;11;
73241;PMS5003;65659;49.234;-2.094;2023-06-22T11:55:42;35;33;
73241;PMS5003;65659;49.234;-2.094;2023-06-22T11:58:06;15;15;
73241;PMS5003;65659;49.234;-2.094;2023-06-22T12:00:36;14;14;
73241;PMS5003;65659;49.234;-2.094;2023-06-22T12:02:57;13;13;
73241;PMS5003;65659;49.234;-2.094;2023-06-22T12:05:28;14;14;
73241;PMS5003;65659;49.234;-2.094;2023-06-22T12:07:48;24;23;
73241;PMS5003;65659;49.234;-2.094;2023-06-22T12:10:15;18;17;
73241;PMS5003;65659;49.234;-2.094;2023-06-22T12:12:40;13;13;
73241;PMS5003;65659;49.234;-2.094;2023-06-22T12:15:10;18;18;
73241;PMS5003;65659;49.234;-2.094;2023-06-22T12:17:30;18;18;
73241;PMS5003;65659;49.234;-2.094;2023-06-22T12:19:56;16;15;
73241;PMS5003;65659;49.234;-2.094;2023-06-22T12:22:22;10;10;
73241;PMS5003;65659;49.234;-2.094;2023-06-22T12:24:47;9;9;
73241;PMS5003;65659;49.234;-2.094;2023-06-22T12:27:13;10;10;
73241;PMS5003;65659;49.234;-2.094;2023-06-22T12:29:43;9;9;
73241;PMS5003;65659;49.234;-2.094;2023-06-22T12:32:04;11;10;
73241;PMS5003;65659;49.234;-2.094;2023-06-22T12:37:20;8;8;
73241;PMS5003;65659;49.234;-2.094;2023-06-22T12:39:26;10;9;
73241;PMS5003;65659;49.234;-2.094;2023-06-22T12:41:52;9;9;
73241;PMS5003;65659;49.234;-2.094;2023-06-22T12:44:11;12;12;
73241;PMS5003;65659;49.234;-2.094;2023-06-22T12:46:37;8;8;
73241;PMS5003;65659;49.234;-2.094;2023-06-22T12:49:02;8;7;
73241;PMS5003;65659;49.234;-2.094;2023-06-22T12:51:28;7;6;
73241;PMS5003;65659;49.234;-2.094;2023-06-22T12:54:00;7;6;
73241;PMS5003;65659;49.234;-2.094;2023-06-22T12:56:19;6;6;
73241;PMS5003;65659;49.234;-2.094;2023-06-22T12:58:45;8;8;
73241;PMS5003;65659;49.234;-2.094;2023-06-22T13:01:11;13;12;
73241;PMS5003;65659;49.234;-2.094;2023-06-22T13:03:46;8;8;
73241;PMS5003;65659;49.234;-2.094;2023-06-22T13:06:02;9;9;
73241;PMS5003;65659;49.234;-2.094;2023-06-22T13:08:29;18;18;
73241;PMS5003;65659;49.234;-2.094;2023-06-22T13:11:02;6;5;
73241;PMS5003;65659;49.234;-2.094;2023-06-22T13:13:19;10;10;
73241;PMS5003;65659;49.234;-2.094;2023-06-22T13:15:45;12;12;
73241;PMS5003;65659;49.234;-2.094;2023-06-22T13:18:13;10;9;
73241;PMS5003;65659;49.234;-2.094;2023-06-22T13:20:44;9;9;
73241;PMS5003;65659;49.234;-2.094;2023-06-22T13:23:01;7;7;
73241;PMS5003;65659;49.234;-2.094;2023-06-22T13:25:27;7;7;
73241;PMS5003;65659;49.234;-2.094;2023-06-22T13:27:58;7;7;
73241;PMS5003;65659;49.234;-2.094;2023-06-22T13:30:19;6;6;
73241;PMS5003;65659;49.234;-2.094;2023-06-22T13:32:44;10;9;
73241;PMS5003;65659;49.234;-2.094;2023-06-22T13:35:09;8;8;
73241;PMS5003;65659;49.234;-2.094;2023-06-22T13:37:34;7;7;
73241;PMS5003;65659;49.234;-2.094;2023-06-22T13:40:01;7;7;
73241;PMS5003;65659;49.234;-2.094;2023-06-22T13:42:28;6;5;
73241;PMS5003;65659;49.234;-2.094;2023-06-22T13:52:09;6;6;
73241;PMS5003;65659;49.234;-2.094;2023-06-22T13:54:34;6;6;
73241;PMS5003;65659;49.234;-2.094;2023-06-22T13:59:29;5;5;
73241;PMS5003;65659;49.234;-2.094;2023-06-22T14:01:51;3;3;
73241;PMS5003;65659;49.234;-2.094;2023-06-22T14:04:17;7;7;
73241;PMS5003;65659;49.234;-2.094;2023-06-22T14:06:42;9;9;
73241;PMS5003;65659;49.234;-2.094;2023-06-22T14:09:10;6;6;
73241;PMS5003;65659;49.234;-2.094;2023-06-22T14:11:34;4;4;
73241;PMS5003;65659;49.234;-2.094;2023-06-22T14:14:06;6;6;
73241;PMS5003;65659;49.234;-2.094;2023-06-22T14:16:25;5;5;
73241;PMS5003;65659;49.234;-2.094;2023-06-22T14:18:50;6;5;
73241;PMS5003;65659;49.234;-2.094;2023-06-22T14:21:15;7;7;
73241;PMS5003;65659;49.234;-2.094;2023-06-22T14:23:42;6;6;
73241;PMS5003;65659;49.234;-2.094;2023-06-22T14:26:07;4;4;
73241;PMS5003;65659;49.234;-2.094;2023-06-22T14:28:33;5;5;
73241;PMS5003;65659;49.234;-2.094;2023-06-22T14:31:06;4;4;
73241;PMS5003;65659;49.234;-2.094;2023-06-22T14:33:23;4;4;
73241;PMS5003;65659;49.234;-2.094;2023-06-22T14:35:49;7;7;
73241;PMS5003;65659;49.234;-2.094;2023-06-22T14:38:15;5;5;
73241;PMS5003;65659;49.234;-2.094;2023-06-22T14:40:43;3;3;
73241;PMS5003;65659;49.234;-2.094;2023-06-22T14:43:09;3;3;
73241;PMS5003;65659;49.234;-2.094;2023-06-22T14:45:31;3;3;
73241;PMS5003;65659;49.234;-2.094;2023-06-22T14:48:01;4;4;
73241;PMS5003;65659;49.234;-2.094;2023-06-22T14:50:23;4;4;
73241;PMS5003;65659;49.234;-2.094;2023-06-22T14:52:49;3;3;
73241;PMS5003;65659;49.234;-2.094;2023-06-22T14:55:14;2;2;
73241;PMS5003;65659;49.234;-2.094;2023-06-22T14:57:41;2;2;
73241;PMS5003;65659;49.234;-2.094;2023-06-22T15:00:06;3;3;
73241;PMS5003;65659;49.234;-2.094;2023-06-22T15:02:33;4;4;
73241;PMS5003;65659;49.234;-2.094;2023-06-22T15:04:56;1;1;
73241;PMS5003;65659;49.234;-2.094;2023-06-22T15:07:22;2;2;
73241;PMS5003;65659;49.234;-2.094;2023-06-22T15:09:47;4;4;
73241;PMS5003;65659;49.234;-2.094;2023-06-22T15:12:13;5;5;
73241;PMS5003;65659;49.234;-2.094;2023-06-22T15:14:39;3;3;
73241;PMS5003;65659;49.234;-2.094;2023-06-22T15:17:04;4;4;
73241;PMS5003;65659;49.234;-2.094;2023-06-22T15:19:29;4;4;
73241;PMS5003;65659;49.234;-2.094;2023-06-22T15:21:55;4;4;
73241;PMS5003;65659;49.234;-2.094;2023-06-22T15:24:21;6;5;
73241;PMS5003;65659;49.234;-2.094;2023-06-22T15:26:46;5;4;
73241;PMS5003;65659;49.234;-2.094;2023-06-22T15:29:12;4;3;
73241;PMS5003;65659;49.234;-2.094;2023-06-22T15:31:37;5;5;
73241;PMS5003;65659;49.234;-2.094;2023-06-22T15:34:03;3;3;
73241;PMS5003;65659;49.234;-2.094;2023-06-22T15:36:28;3;3;
73241;PMS5003;65659;49.234;-2.094;2023-06-22T15:38:54;4;4;
73241;PMS5003;65659;49.234;-2.094;2023-06-22T15:41:19;4;4;
73241;PMS5003;65659;49.234;-2.094;2023-06-22T15:43:45;6;4;
73241;PMS5003;65659;49.234;-2.094;2023-06-22T15:46:10;4;4;
73241;PMS5003;65659;49.234;-2.094;2023-06-22T15:48:36;3;3;
73241;PMS5003;65659;49.234;-2.094;2023-06-22T15:51:02;6;5;
73241;PMS5003;65659;49.234;-2.094;2023-06-22T15:53:27;5;5;
73241;PMS5003;65659;49.234;-2.094;2023-06-22T15:55:53;4;4;
73241;PMS5003;65659;49.234;-2.094;2023-06-22T15:58:18;5;5;
73241;PMS5003;65659;49.234;-2.094;2023-06-22T16:00:44;4;4;
73241;PMS5003;65659;49.234;-2.094;2023-06-22T16:03:09;5;5;
73241;PMS5003;65659;49.234;-2.094;2023-06-22T16:05:35;3;3;
73241;PMS5003;65659;49.234;-2.094;2023-06-22T16:08:01;5;5;
73241;PMS5003;65659;49.234;-2.094;2023-06-22T16:10:26;3;3;
73241;PMS5003;65659;49.234;-2.094;2023-06-22T16:12:53;3;3;
73241;PMS5003;65659;49.234;-2.094;2023-06-22T16:15:17;4;4;
73241;PMS5003;65659;49.234;-2.094;2023-06-22T16:17:43;3;3;
73241;PMS5003;65659;49.234;-2.094;2023-06-22T16:20:09;3;3;
73241;PMS5003;65659;49.234;-2.094;2023-06-22T16:22:34;4;4;
73241;PMS5003;65659;49.234;-2.094;2023-06-22T16:24:59;4;4;
73241;PMS5003;65659;49.234;-2.094;2023-06-22T16:27:25;2;2;